createdAt,value
2019-03-13T00:00:28.150Z,1.40
2019-03-13T00:04:33.345Z,1.00
2019-03-13T00:08:37.594Z,1.07
2019-03-13T00:12:41.724Z,0.90
2019-03-13T00:16:45.801Z,1.13
2019-03-13T00:20:50.063Z,1.20
2019-03-13T00:24:56.276Z,2.23
2019-03-13T00:29:00.112Z,0.90
2019-03-13T00:33:04.267Z,0.80
2019-03-13T00:37:09.544Z,0.80
2019-03-13T00:41:13.812Z,2.40
2019-03-13T00:45:17.835Z,1.50
2019-03-13T00:49:21.806Z,1.13
2019-03-13T00:53:26.305Z,0.90
2019-03-13T00:57:30.380Z,1.50
2019-03-13T01:01:53.770Z,0.70
2019-03-13T01:06:01.637Z,1.27
2019-03-13T01:10:05.722Z,0.70
2019-03-13T01:14:09.841Z,1.13
2019-03-13T01:18:13.854Z,2.40
2019-03-13T01:22:18.106Z,2.10
2019-03-13T01:26:22.189Z,1.40
2019-03-13T01:30:28.038Z,1.70
2019-03-13T01:34:35.303Z,1.00
2019-03-13T01:38:39.358Z,4.33
2019-03-13T01:42:43.402Z,1.43
2019-03-13T01:46:47.447Z,0.90
2019-03-13T01:50:51.502Z,1.60
2019-03-13T01:54:55.583Z,1.17
2019-03-13T01:58:59.819Z,1.33
2019-03-13T02:03:06.370Z,2.30
2019-03-13T02:07:10.430Z,1.80
2019-03-13T02:11:14.628Z,1.63
2019-03-13T02:15:22.065Z,2.00
2019-03-13T02:19:25.948Z,2.40
2019-03-13T02:23:30.008Z,3.47
2019-03-13T02:27:34.002Z,1.00
2019-03-13T02:31:38.151Z,2.20
2019-03-13T02:35:42.503Z,1.33
2019-03-13T02:39:46.610Z,1.87
2019-03-13T02:43:50.706Z,1.43
2019-03-13T02:47:54.940Z,0.60
2019-03-13T02:51:59.110Z,2.60
2019-03-13T02:56:03.098Z,1.87
2019-03-13T03:00:08.922Z,0.83
2019-03-13T03:04:12.990Z,3.03
2019-03-13T03:08:17.258Z,3.20
2019-03-13T03:12:21.373Z,0.73
2019-03-13T03:16:25.748Z,2.93
2019-03-13T03:20:29.753Z,2.63
2019-03-13T03:24:33.839Z,1.13
2019-03-13T03:28:38.011Z,0.87
2019-03-13T03:32:42.026Z,1.50
2019-03-13T03:36:46.483Z,1.10
2019-03-13T03:40:50.426Z,2.40
2019-03-13T03:44:54.540Z,1.93
2019-03-13T03:48:58.635Z,2.37
2019-03-13T03:53:02.729Z,0.80
2019-03-13T03:57:06.906Z,3.07
2019-03-13T04:01:11.534Z,1.43
2019-03-13T04:05:17.431Z,1.37
2019-03-13T04:09:21.568Z,3.27
2019-03-13T04:13:25.750Z,3.03
2019-03-13T04:17:29.759Z,1.10
2019-03-13T04:21:33.834Z,1.20
2019-03-13T04:25:38.107Z,2.10
2019-03-13T04:29:42.181Z,2.17
2019-03-13T04:33:46.337Z,3.93
2019-03-13T04:37:50.598Z,2.60
2019-03-13T04:41:54.483Z,3.40
2019-03-13T04:45:58.475Z,1.03
2019-03-13T04:50:02.723Z,2.53
2019-03-13T04:54:06.838Z,1.23
2019-03-13T04:58:10.891Z,4.67
2019-03-13T05:02:15.038Z,2.77
2019-03-13T05:06:20.363Z,1.73
2019-03-13T05:10:25.381Z,6.37
2019-03-13T05:14:32.527Z,1.03
2019-03-13T05:18:35.334Z,1.20
2019-03-13T05:22:39.433Z,3.97
2019-03-13T05:26:43.517Z,2.47
2019-03-13T05:30:47.601Z,2.10
2019-03-13T05:34:51.598Z,2.73
2019-03-13T05:38:55.654Z,1.77
2019-03-13T05:42:59.860Z,1.90
2019-03-13T05:47:03.777Z,4.53
2019-03-13T05:51:07.929Z,4.20
2019-03-13T05:55:11.996Z,3.33
2019-03-13T05:59:15.877Z,3.53
2019-03-13T06:03:20.014Z,3.70
2019-03-13T06:07:24.207Z,2.83
2019-03-13T06:11:28.072Z,3.07
2019-03-13T06:15:32.084Z,3.37
2019-03-13T06:19:36.359Z,3.70
2019-03-13T06:23:40.459Z,5.43
2019-03-13T06:27:46.421Z,1.23
2019-03-13T06:31:50.560Z,1.90
2019-03-13T06:35:54.542Z,1.43
2019-03-13T06:39:58.597Z,3.07
2019-03-13T06:44:03.158Z,4.77
2019-03-13T06:48:07.256Z,5.70
2019-03-13T06:52:11.553Z,4.00
2019-03-13T06:56:15.645Z,2.30
2019-03-13T07:00:39.233Z,2.73
2019-03-13T07:05:02.571Z,2.10
2019-03-13T07:09:13.376Z,5.57
2019-03-13T07:13:23.815Z,4.70
2019-03-13T07:17:33.288Z,2.40
2019-03-13T07:21:57.569Z,2.30
2019-03-13T07:26:14.873Z,2.10
2019-03-13T07:30:38.099Z,4.10
2019-03-13T07:34:58.968Z,2.77
2019-03-13T07:39:12.166Z,3.20
2019-03-13T07:43:35.479Z,9.57
2019-03-13T07:47:58.719Z,2.17
2019-03-13T07:52:21.987Z,4.63
2019-03-13T07:56:41.511Z,7.53
2019-03-13T08:00:59.627Z,11.53
2019-03-13T08:05:11.749Z,4.10
2019-03-13T08:09:25.001Z,1.43
2019-03-13T08:13:36.188Z,2.10
2019-03-13T08:17:49.995Z,2.30
2019-03-13T08:22:13.266Z,1.77
2019-03-13T08:26:24.933Z,1.90
2019-03-13T08:30:38.045Z,2.60
2019-03-13T08:34:47.980Z,4.17
2019-03-13T08:38:59.023Z,1.33
2019-03-13T08:43:09.536Z,1.63
2019-03-13T08:47:21.209Z,5.40
2019-03-13T08:51:39.028Z,0.80
2019-03-13T08:55:54.596Z,3.40
2019-03-13T09:00:17.792Z,2.23
2019-03-13T09:04:42.223Z,2.13
2019-03-13T09:08:59.295Z,1.77
2019-03-13T09:13:14.102Z,3.43
2019-03-13T09:17:25.564Z,3.03
2019-03-13T09:21:48.966Z,1.93
2019-03-13T09:26:12.414Z,3.57
2019-03-13T09:30:29.990Z,3.43
2019-03-13T09:34:41.787Z,2.83
2019-03-13T09:38:51.647Z,2.40
2019-03-13T09:43:03.324Z,2.57
2019-03-13T09:47:25.390Z,2.10
2019-03-13T09:51:37.984Z,3.77
2019-03-13T09:56:01.251Z,3.90
2019-03-13T10:00:25.213Z,2.70
2019-03-13T10:04:48.532Z,3.13
2019-03-13T10:09:11.912Z,2.53
2019-03-13T10:13:35.247Z,4.43
2019-03-13T10:17:46.168Z,3.77
2019-03-13T10:22:09.558Z,2.70
2019-03-13T10:26:32.913Z,5.20
2019-03-13T10:30:46.196Z,3.00
2019-03-13T10:35:10.448Z,3.53
2019-03-13T10:39:33.725Z,1.37
2019-03-13T10:43:44.626Z,4.00
2019-03-13T10:47:54.913Z,3.60
2019-03-13T10:52:12.177Z,1.30
2019-03-13T10:56:26.883Z,2.63
2019-03-13T11:00:44.271Z,1.83
2019-03-13T11:05:07.553Z,2.53
2019-03-13T11:09:30.937Z,2.47
2019-03-13T11:13:42.803Z,2.37
2019-03-13T11:18:06.144Z,1.90
2019-03-13T11:22:18.072Z,1.67
2019-03-13T11:26:33.320Z,2.10
2019-03-13T11:30:48.204Z,2.53
2019-03-13T11:35:04.267Z,5.83
2019-03-13T11:39:19.710Z,3.27
2019-03-13T11:43:42.946Z,2.83
2019-03-13T11:48:06.405Z,1.47
2019-03-13T11:52:29.697Z,1.53
2019-03-13T11:56:53.115Z,2.00
2019-03-13T12:01:07.087Z,0.87
2019-03-13T12:05:18.158Z,1.63
2019-03-13T12:09:41.614Z,1.13
2019-03-13T12:14:00.092Z,0.73
2019-03-13T12:18:23.363Z,2.67
2019-03-13T12:22:41.368Z,0.87
2019-03-13T12:26:53.714Z,1.63
2019-03-13T12:31:17.071Z,1.83
2019-03-13T12:35:35.523Z,1.27
2019-03-13T12:39:55.268Z,0.77
2019-03-13T12:44:06.918Z,0.70
2019-03-13T12:48:17.896Z,1.97
2019-03-13T12:52:42.328Z,1.80
2019-03-13T12:57:01.125Z,1.97
2019-03-13T13:01:24.416Z,1.83
2019-03-13T13:05:41.701Z,1.87
2019-03-13T13:10:02.359Z,1.80
2019-03-13T13:14:16.686Z,0.67
2019-03-13T13:18:40.032Z,1.77
2019-03-13T13:22:44.326Z,2.27
2019-03-13T13:26:50.168Z,2.00
2019-03-13T13:30:54.245Z,1.43
2019-03-13T13:34:58.402Z,0.70
2019-03-13T13:39:03.312Z,1.27
2019-03-13T13:43:08.819Z,1.00
2019-03-13T13:47:13.041Z,1.53
2019-03-13T13:51:17.103Z,1.67
2019-03-13T13:55:21.047Z,1.00
2019-03-13T13:59:25.296Z,0.80
2019-03-13T14:03:29.299Z,1.57
2019-03-13T14:07:33.400Z,0.90
2019-03-13T14:11:37.529Z,1.87
2019-03-13T14:15:41.696Z,1.23
2019-03-13T14:19:45.742Z,1.87
2019-03-13T14:23:49.773Z,0.77
2019-03-13T14:27:53.909Z,1.00
2019-03-13T14:31:57.987Z,1.30
2019-03-13T14:36:02.039Z,0.77
2019-03-13T14:40:06.467Z,0.60
2019-03-13T14:44:10.835Z,0.73
2019-03-13T14:48:14.837Z,0.60
2019-03-13T14:52:19.004Z,1.23
2019-03-13T14:56:23.053Z,0.80
2019-03-13T15:00:27.085Z,1.43
2019-03-13T15:04:31.226Z,2.23
2019-03-13T15:08:35.389Z,0.70
2019-03-13T15:12:39.440Z,1.33
2019-03-13T15:16:43.490Z,1.27
2019-03-13T15:20:47.526Z,0.83
2019-03-13T15:24:51.688Z,1.97
2019-03-13T15:28:55.656Z,0.60
2019-03-13T15:32:59.883Z,2.83
2019-03-13T15:37:04.160Z,0.60
2019-03-13T15:41:08.248Z,1.03
2019-03-13T15:45:13.742Z,0.60
2019-03-13T15:49:17.713Z,0.73
2019-03-13T15:53:22.879Z,1.07
2019-03-13T15:57:26.966Z,0.77
2019-03-13T16:01:31.108Z,0.97
2019-03-13T16:05:35.163Z,0.77
2019-03-13T16:09:39.245Z,0.80
2019-03-13T16:13:43.317Z,1.63
2019-03-13T16:17:47.445Z,1.90
2019-03-13T16:21:51.534Z,1.03
2019-03-13T16:25:55.542Z,1.57
2019-03-13T16:29:59.614Z,1.87
2019-03-13T16:34:03.569Z,2.23
2019-03-13T16:38:07.530Z,2.50
2019-03-13T16:42:11.564Z,1.37
2019-03-13T16:46:15.975Z,2.77
2019-03-13T16:50:20.249Z,2.73
2019-03-13T16:54:24.502Z,0.87
2019-03-13T16:58:28.594Z,2.87
2019-03-13T17:02:32.632Z,5.23
2019-03-13T17:06:36.604Z,11.93
2019-03-13T17:10:42.217Z,14.60
2019-03-13T17:14:46.191Z,22.90
2019-03-13T17:18:50.358Z,26.70
2019-03-13T17:22:54.544Z,20.83
2019-03-13T17:26:58.705Z,24.20
2019-03-13T17:31:04.615Z,8.43
2019-03-13T17:35:08.755Z,10.57
2019-03-13T17:39:12.822Z,8.13
2019-03-13T17:43:17.102Z,3.30
2019-03-13T17:47:21.261Z,1.80
2019-03-13T17:51:25.246Z,1.97
2019-03-13T17:55:29.290Z,1.67
2019-03-13T17:59:33.346Z,1.67
2019-03-13T18:03:37.314Z,1.17
2019-03-13T18:07:41.480Z,2.93
2019-03-13T18:11:45.517Z,1.47
2019-03-13T18:15:50.117Z,0.80
2019-03-13T18:19:54.180Z,0.70
2019-03-13T18:23:58.362Z,1.33
2019-03-13T18:28:02.337Z,0.70
2019-03-13T18:32:06.529Z,1.37
2019-03-13T18:36:10.537Z,0.70
2019-03-13T18:40:15.117Z,0.70
2019-03-13T18:44:19.185Z,1.07
2019-03-13T18:48:23.384Z,0.90
2019-03-13T18:52:27.481Z,0.60
2019-03-13T18:56:31.505Z,0.70
2019-03-13T19:00:35.694Z,0.67
2019-03-13T19:04:39.762Z,0.70
2019-03-13T19:08:43.923Z,1.20
2019-03-13T19:12:49.195Z,1.17
2019-03-13T19:16:53.586Z,2.60
2019-03-13T19:20:58.694Z,0.70
2019-03-13T19:25:02.914Z,2.00
2019-03-13T19:29:08.612Z,1.73
2019-03-13T19:33:12.729Z,1.47
2019-03-13T19:37:16.740Z,3.63
2019-03-13T19:41:20.837Z,2.47
2019-03-13T19:45:26.388Z,2.50
2019-03-13T19:49:30.609Z,1.33
2019-03-13T19:53:34.566Z,1.50
2019-03-13T19:57:38.821Z,4.40
2019-03-13T20:01:42.931Z,2.43
2019-03-13T20:05:47.161Z,2.90
2019-03-13T20:09:51.153Z,3.43
2019-03-13T20:13:55.215Z,3.03
2019-03-13T20:17:59.289Z,1.27
2019-03-13T20:22:03.549Z,0.77
2019-03-13T20:26:07.672Z,1.90
2019-03-13T20:30:13.287Z,0.70
2019-03-13T20:34:18.421Z,1.53
2019-03-13T20:38:41.768Z,0.70
2019-03-13T20:42:45.893Z,1.40
2019-03-13T20:46:50.062Z,2.27
2019-03-13T20:50:54.195Z,3.13
2019-03-13T20:54:58.315Z,0.80
2019-03-13T20:59:02.355Z,3.00
2019-03-13T21:03:06.813Z,2.17
2019-03-13T21:07:10.855Z,1.30
2019-03-13T21:11:14.977Z,1.10
2019-03-13T21:15:19.192Z,1.33
2019-03-13T21:19:24.226Z,1.33
2019-03-13T21:23:29.333Z,1.63
2019-03-13T21:27:34.602Z,1.10
2019-03-13T21:31:38.610Z,1.87
2019-03-13T21:35:42.607Z,1.53
2019-03-13T21:39:46.872Z,1.03
2019-03-13T21:43:51.181Z,1.73
2019-03-13T21:47:55.278Z,1.10
2019-03-13T21:51:59.330Z,0.90
2019-03-13T21:56:03.591Z,0.70
2019-03-13T22:00:09.743Z,0.83
2019-03-13T22:04:24.012Z,1.43
2019-03-13T22:08:20.911Z,1.30
2019-03-13T22:12:24.942Z,0.83
2019-03-13T22:16:29.051Z,1.20
2019-03-13T22:20:33.030Z,1.00
2019-03-13T22:24:37.314Z,0.80
2019-03-13T22:28:41.298Z,1.50
2019-03-13T22:32:45.334Z,1.53
2019-03-13T22:36:49.426Z,0.70
2019-03-13T22:40:53.678Z,2.67
2019-03-13T22:44:57.645Z,2.57
2019-03-13T22:49:01.818Z,1.83
2019-03-13T22:53:05.905Z,1.97
2019-03-13T22:57:13.616Z,1.00
2019-03-13T23:01:19.006Z,1.97
2019-03-13T23:05:24.196Z,1.80
2019-03-13T23:09:28.429Z,3.27
2019-03-13T23:13:32.622Z,1.90
2019-03-13T23:17:36.786Z,4.97
2019-03-13T23:21:40.764Z,2.33
2019-03-13T23:25:44.990Z,1.30
2019-03-13T23:29:52.698Z,1.60
2019-03-13T23:33:57.730Z,1.13
2019-03-13T23:38:01.781Z,0.97
2019-03-13T23:42:06.864Z,1.20
2019-03-13T23:46:10.932Z,1.77
2019-03-13T23:50:15.049Z,1.00
2019-03-13T23:54:19.083Z,0.80
2019-03-13T23:58:23.083Z,1.10
